Quartz Hill, California
Current Conditions -  °F | °C
As of 1:53 PM on Thursday 23 Oct 2014 (Local Time) from KPMD Reporting Station
Clear Clear  
Wind Chill: 85°   Ceiling: Unl
Heat Index: 85°   Visibility: 10mi
Dew Point: 28°   Wind: 5mph
Humidity: 13%   Direction: 350°N
Pressure: 30.02"   Gusts: NA
Location:  34.5959°N, 118.235°W
Report Text: KPMD 232053Z 35004KT 10SM CLR 29/M02 A3002 RMK AO2 SLP144 6//// T02941022 58025 $
Loading
Personal Weather Stations






























Interactive Weather Map
Tropical Storm Tracking
New forecast layout! Learn more

10-Day Weather Forecast

Advertisements
Track Severe Weather on mobile